createdAt,value
2022-07-29T00:02:26.565Z,12.10
2022-07-29T00:04:53.682Z,12.10
2022-07-29T00:07:20.721Z,12.06
2022-07-29T00:09:51.696Z,12.08
2022-07-29T00:12:26.176Z,12.04
2022-07-29T00:14:57.243Z,12.06
2022-07-29T00:17:27.277Z,12.05
2022-07-29T00:19:54.132Z,12.09
2022-07-29T00:22:21.062Z,12.12
2022-07-29T00:24:48.985Z,12.15
2022-07-29T00:27:18.417Z,12.20
2022-07-29T00:29:45.421Z,12.18
2022-07-29T00:32:12.467Z,12.15
2022-07-29T00:35:16.672Z,12.18
2022-07-29T00:37:44.248Z,12.14
2022-07-29T00:40:11.200Z,11.96
2022-07-29T00:42:48.225Z,11.89
2022-07-29T00:45:16.505Z,11.79
2022-07-29T00:47:43.710Z,11.77
2022-07-29T00:50:11.721Z,11.70
2022-07-29T00:52:40.229Z,11.68
2022-07-29T00:55:08.968Z,11.61
2022-07-29T00:57:36.104Z,11.55
2022-07-29T01:00:05.168Z,11.49
2022-07-29T01:02:32.342Z,11.48
2022-07-29T01:04:59.702Z,11.40
2022-07-29T01:07:27.665Z,11.41
2022-07-29T01:09:55.620Z,11.44
2022-07-29T01:12:29.961Z,11.40
2022-07-29T01:14:57.421Z,11.38
2022-07-29T01:17:24.372Z,11.41
2022-07-29T01:20:00.476Z,11.48
2022-07-29T01:22:38.678Z,11.47
2022-07-29T01:25:12.343Z,11.49
2022-07-29T01:27:46.294Z,11.51
2022-07-29T01:30:15.568Z,11.49
2022-07-29T01:32:44.177Z,11.46
2022-07-29T01:35:40.181Z,11.48
2022-07-29T01:38:10.843Z,11.40
2022-07-29T01:40:43.740Z,11.39
2022-07-29T01:43:12.608Z,11.30
2022-07-29T01:45:39.545Z,11.33
2022-07-29T01:48:11.669Z,11.26
2022-07-29T01:50:47.767Z,11.32
2022-07-29T01:53:16.625Z,11.18
2022-07-29T01:55:45.285Z,11.25
2022-07-29T01:58:13.212Z,11.23
2022-07-29T02:00:40.585Z,11.13
2022-07-29T02:03:12.530Z,11.07
2022-07-29T02:05:40.551Z,10.97
2022-07-29T02:08:09.608Z,10.92
2022-07-29T02:10:37.749Z,10.87
2022-07-29T02:13:05.252Z,10.83
2022-07-29T02:15:33.771Z,10.83
2022-07-29T02:18:08.411Z,10.78
2022-07-29T02:20:35.672Z,10.70
2022-07-29T02:23:03.439Z,10.65
2022-07-29T02:25:37.303Z,10.67
2022-07-29T02:28:06.664Z,10.73
2022-07-29T02:30:34.245Z,10.71
2022-07-29T02:33:02.284Z,10.70
2022-07-29T02:35:34.954Z,10.67
2022-07-29T02:38:21.773Z,10.72
2022-07-29T02:40:49.541Z,10.67
2022-07-29T02:43:16.926Z,10.71
2022-07-29T02:45:43.956Z,10.73
2022-07-29T02:48:14.306Z,10.79
2022-07-29T02:51:04.347Z,10.77
2022-07-29T02:53:34.405Z,10.78
2022-07-29T02:56:05.566Z,10.88
2022-07-29T02:58:35.268Z,10.86
2022-07-29T03:01:10.409Z,10.82
2022-07-29T03:03:38.842Z,10.83
2022-07-29T03:06:06.678Z,10.80
2022-07-29T03:08:33.814Z,10.77
2022-07-29T03:11:01.849Z,10.77
2022-07-29T03:13:30.537Z,10.82
2022-07-29T03:15:58.781Z,10.80
2022-07-29T03:18:26.892Z,10.78
2022-07-29T03:20:53.669Z,10.76
2022-07-29T03:23:21.984Z,10.78
2022-07-29T03:25:49.277Z,10.71
2022-07-29T03:28:16.588Z,10.68
2022-07-29T03:30:46.451Z,10.67
2022-07-29T03:33:13.936Z,10.72
2022-07-29T03:35:41.053Z,10.70
2022-07-29T03:38:08.355Z,10.70
2022-07-29T03:40:46.012Z,10.72
2022-07-29T03:43:13.892Z,10.76
2022-07-29T03:45:43.995Z,10.69
2022-07-29T03:48:13.158Z,10.71
2022-07-29T03:50:40.274Z,10.78
2022-07-29T03:53:07.453Z,10.83
2022-07-29T03:55:37.399Z,10.88
2022-07-29T03:58:04.502Z,11.06
2022-07-29T04:00:32.545Z,11.12
2022-07-29T04:02:59.459Z,11.21
2022-07-29T04:05:26.320Z,11.34
2022-07-29T04:07:53.351Z,11.54
2022-07-29T04:10:30.109Z,11.62
2022-07-29T04:12:59.831Z,11.72
2022-07-29T04:15:31.498Z,11.85
2022-07-29T04:17:59.177Z,11.95
2022-07-29T04:20:26.903Z,12.05
2022-07-29T04:22:53.740Z,12.16
2022-07-29T04:25:21.018Z,12.22
2022-07-29T04:28:03.907Z,12.31
2022-07-29T04:30:31.748Z,12.51
2022-07-29T04:32:59.586Z,12.59
2022-07-29T04:35:26.512Z,12.74
2022-07-29T04:37:53.487Z,12.79
2022-07-29T04:40:20.812Z,12.92
2022-07-29T04:42:48.028Z,13.07
2022-07-29T04:45:16.307Z,13.19
2022-07-29T04:47:43.412Z,13.42
2022-07-29T04:50:10.876Z,13.62
2022-07-29T04:52:37.873Z,13.78
2022-07-29T04:55:05.620Z,13.85
2022-07-29T04:57:32.517Z,13.93
2022-07-29T04:59:59.353Z,14.01
2022-07-29T05:02:26.634Z,14.12
2022-07-29T05:04:53.546Z,14.21
2022-07-29T05:07:20.417Z,14.37
2022-07-29T05:09:47.444Z,14.50
2022-07-29T05:12:14.264Z,14.55
2022-07-29T05:14:41.164Z,14.66
2022-07-29T05:17:08.304Z,14.71
2022-07-29T05:19:39.735Z,14.81
2022-07-29T05:22:07.044Z,14.85
2022-07-29T05:24:34.059Z,15.00
2022-07-29T05:27:01.118Z,15.14
2022-07-29T05:29:43.664Z,15.29
2022-07-29T05:32:13.240Z,15.50
2022-07-29T05:34:50.250Z,15.67
2022-07-29T05:37:21.433Z,15.82
2022-07-29T05:39:56.360Z,15.85
2022-07-29T05:42:27.799Z,15.89
2022-07-29T05:44:54.777Z,15.84
2022-07-29T05:47:21.802Z,16.02
2022-07-29T05:49:49.601Z,16.05
2022-07-29T05:52:16.423Z,16.43
2022-07-29T05:54:43.278Z,16.90
2022-07-29T05:57:16.317Z,17.33
2022-07-29T05:59:43.077Z,17.46
2022-07-29T06:02:09.900Z,17.27
2022-07-29T06:04:37.079Z,17.16
2022-07-29T06:07:04.204Z,17.15
2022-07-29T06:09:30.974Z,17.24
2022-07-29T06:11:59.022Z,17.34
2022-07-29T06:14:26.751Z,17.95
2022-07-29T06:16:54.209Z,18.85
2022-07-29T06:19:21.362Z,19.78
2022-07-29T06:21:48.934Z,19.63
2022-07-29T06:24:16.556Z,19.46
2022-07-29T06:26:43.996Z,19.20
2022-07-29T06:29:14.113Z,18.99
2022-07-29T06:31:40.973Z,18.53
2022-07-29T06:34:08.216Z,18.27
2022-07-29T06:36:35.779Z,17.77
2022-07-29T06:39:05.316Z,17.46
2022-07-29T06:41:33.147Z,17.04
2022-07-29T06:44:00.338Z,17.12
2022-07-29T06:46:27.128Z,17.24
2022-07-29T06:48:54.641Z,17.23
2022-07-29T06:51:23.134Z,17.40
2022-07-29T06:53:59.700Z,17.43
2022-07-29T06:56:31.106Z,17.53
2022-07-29T06:58:58.338Z,18.05
2022-07-29T07:01:25.403Z,18.54
2022-07-29T07:03:52.601Z,19.09
2022-07-29T07:06:19.411Z,19.48
2022-07-29T07:08:46.241Z,19.48
2022-07-29T07:11:13.419Z,19.94
2022-07-29T07:13:40.298Z,20.06
2022-07-29T07:16:07.150Z,19.95
2022-07-29T07:18:34.469Z,20.16
2022-07-29T07:21:01.275Z,19.96
2022-07-29T07:23:28.088Z,20.56
2022-07-29T07:25:55.148Z,21.31
2022-07-29T07:28:24.941Z,21.80
2022-07-29T07:30:52.767Z,21.70
2022-07-29T07:33:20.159Z,21.20
2022-07-29T07:35:47.416Z,20.45
2022-07-29T07:38:14.513Z,20.34
2022-07-29T07:40:42.588Z,20.30
2022-07-29T07:43:09.856Z,20.25
2022-07-29T07:45:38.498Z,20.09
2022-07-29T07:48:06.031Z,19.84
2022-07-29T07:50:33.004Z,19.54
2022-07-29T07:53:00.560Z,19.89
2022-07-29T07:55:27.773Z,20.06
2022-07-29T07:57:55.332Z,20.42
2022-07-29T08:00:23.615Z,20.18
2022-07-29T08:02:51.458Z,20.43
2022-07-29T08:05:18.668Z,21.07
2022-07-29T08:07:48.704Z,21.41
2022-07-29T08:10:37.126Z,21.38
2022-07-29T08:13:07.332Z,21.28
2022-07-29T08:15:35.068Z,22.09
2022-07-29T08:18:06.544Z,22.67
2022-07-29T08:20:36.818Z,23.50
2022-07-29T08:23:03.928Z,24.18
2022-07-29T08:25:30.828Z,24.85
2022-07-29T08:27:57.984Z,26.36
2022-07-29T08:30:25.032Z,27.42
2022-07-29T08:32:55.556Z,28.01
2022-07-29T08:35:23.992Z,28.06
2022-07-29T08:37:50.932Z,29.07
2022-07-29T08:40:17.833Z,28.67
2022-07-29T08:42:44.926Z,28.25
2022-07-29T08:45:11.856Z,27.69
2022-07-29T08:47:40.872Z,26.53
2022-07-29T08:50:09.130Z,27.42
2022-07-29T08:52:42.356Z,27.80
2022-07-29T08:55:10.721Z,27.01
2022-07-29T08:57:39.783Z,27.15
2022-07-29T09:00:19.372Z,27.58
2022-07-29T09:02:49.151Z,27.71
2022-07-29T09:05:16.192Z,27.56
2022-07-29T09:07:44.427Z,27.39
2022-07-29T09:10:11.427Z,26.45
2022-07-29T09:12:38.464Z,26.16
2022-07-29T09:15:06.030Z,26.00
2022-07-29T09:17:42.786Z,25.05
2022-07-29T09:20:13.747Z,25.28
2022-07-29T09:22:42.214Z,25.10
2022-07-29T09:25:10.001Z,25.28
2022-07-29T09:27:37.268Z,25.99
2022-07-29T09:30:08.480Z,26.59
2022-07-29T09:32:54.965Z,28.48
2022-07-29T09:35:23.305Z,29.14
2022-07-29T09:37:50.847Z,29.36
2022-07-29T09:40:19.014Z,28.79
2022-07-29T09:42:46.852Z,28.85
2022-07-29T09:45:14.006Z,27.85
2022-07-29T09:47:49.978Z,27.77
2022-07-29T09:50:17.509Z,27.40
2022-07-29T09:52:49.202Z,26.94
2022-07-29T09:55:18.414Z,27.17
2022-07-29T09:57:47.603Z,26.54
2022-07-29T10:00:16.342Z,26.73
2022-07-29T10:02:47.259Z,26.61
2022-07-29T10:05:19.040Z,26.15
2022-07-29T10:07:51.753Z,25.95
2022-07-29T10:10:25.179Z,25.48
2022-07-29T10:12:56.460Z,25.41
2022-07-29T10:15:27.844Z,24.81
2022-07-29T10:17:55.532Z,25.08
2022-07-29T10:20:23.390Z,24.44
2022-07-29T10:22:53.455Z,24.24
2022-07-29T10:25:21.350Z,24.44
2022-07-29T10:27:49.317Z,23.80
2022-07-29T10:30:17.341Z,23.53
2022-07-29T10:32:54.059Z,23.96
2022-07-29T10:35:33.843Z,24.46
2022-07-29T10:38:03.701Z,24.82
2022-07-29T10:41:06.795Z,24.98
2022-07-29T10:43:38.951Z,25.35
2022-07-29T10:46:10.120Z,26.08
2022-07-29T10:48:57.513Z,26.37
2022-07-29T10:51:25.132Z,26.98
2022-07-29T10:53:53.738Z,27.71
2022-07-29T10:56:39.237Z,28.85
2022-07-29T10:59:21.479Z,28.85
2022-07-29T11:01:53.540Z,28.84
2022-07-29T11:04:47.144Z,28.34
2022-07-29T11:07:17.588Z,29.30
2022-07-29T11:09:46.585Z,30.73
2022-07-29T11:12:32.429Z,31.53
2022-07-29T11:15:00.359Z,33.32
2022-07-29T11:17:27.393Z,34.15
2022-07-29T11:20:23.448Z,34.30
2022-07-29T11:22:51.836Z,34.70
2022-07-29T11:25:50.402Z,35.98
2022-07-29T11:28:12.292Z,34.00
2022-07-29T11:30:50.247Z,33.01
2022-07-29T11:33:54.169Z,32.93
2022-07-29T11:36:16.906Z,32.14
2022-07-29T11:38:44.459Z,30.97
2022-07-29T11:41:31.784Z,32.61
2022-07-29T11:44:00.785Z,34.19
2022-07-29T11:46:50.508Z,35.52
2022-07-29T11:49:22.313Z,36.16
2022-07-29T11:52:03.151Z,34.56
2022-07-29T11:54:57.088Z,34.43
2022-07-29T11:57:22.615Z,33.77
2022-07-29T11:59:50.784Z,33.35
2022-07-29T12:02:37.154Z,34.60
2022-07-29T12:05:10.468Z,34.73
2022-07-29T12:07:39.090Z,34.15
2022-07-29T12:10:11.600Z,34.59
2022-07-29T12:12:52.606Z,34.54
2022-07-29T12:15:22.404Z,34.17
2022-07-29T12:17:49.605Z,32.97
2022-07-29T12:20:27.570Z,31.46
2022-07-29T12:22:55.621Z,31.34
2022-07-29T12:25:33.133Z,30.74
2022-07-29T12:28:02.489Z,30.49
2022-07-29T12:30:37.058Z,29.32
2022-07-29T12:33:11.065Z,29.50
2022-07-29T12:35:38.350Z,28.56
2022-07-29T12:38:05.432Z,28.80
2022-07-29T12:40:32.350Z,28.28
2022-07-29T12:43:10.485Z,28.37
2022-07-29T12:45:42.168Z,28.02
2022-07-29T12:48:12.008Z,28.38
2022-07-29T12:50:54.057Z,28.22
2022-07-29T12:53:21.224Z,27.58
2022-07-29T12:55:52.780Z,26.97
2022-07-29T12:58:32.133Z,27.38
2022-07-29T13:01:00.944Z,27.66
2022-07-29T13:03:28.953Z,27.09
2022-07-29T13:06:02.954Z,26.86
2022-07-29T13:08:29.841Z,26.97
2022-07-29T13:10:56.757Z,26.93
2022-07-29T13:13:24.029Z,26.53
2022-07-29T13:16:06.258Z,26.54
2022-07-29T13:18:34.882Z,26.28
2022-07-29T13:21:12.077Z,25.93
2022-07-29T13:23:39.320Z,26.40
2022-07-29T13:26:10.053Z,26.34
2022-07-29T13:28:36.944Z,26.27
2022-07-29T13:31:04.393Z,25.89
2022-07-29T13:33:31.370Z,26.28
2022-07-29T13:35:58.160Z,26.40
2022-07-29T13:38:31.099Z,26.12
2022-07-29T13:40:59.661Z,26.49
2022-07-29T13:43:26.814Z,26.23
2022-07-29T13:45:53.656Z,26.56
2022-07-29T13:48:20.721Z,26.61
2022-07-29T13:50:49.017Z,26.22
2022-07-29T13:53:17.835Z,26.07
2022-07-29T13:55:45.160Z,25.67
2022-07-29T13:58:12.262Z,25.72
2022-07-29T14:00:39.171Z,26.05
2022-07-29T14:03:07.444Z,26.38
2022-07-29T14:05:34.558Z,26.49
2022-07-29T14:08:01.398Z,26.26
2022-07-29T14:10:28.269Z,25.86
2022-07-29T14:12:55.513Z,26.32
2022-07-29T14:15:22.331Z,26.14
2022-07-29T14:17:49.138Z,25.94
2022-07-29T14:20:17.182Z,25.67
2022-07-29T14:22:45.056Z,25.72
2022-07-29T14:25:14.322Z,25.63
2022-07-29T14:27:43.806Z,25.62
2022-07-29T14:30:11.285Z,25.76
2022-07-29T14:32:38.052Z,25.70
2022-07-29T14:35:05.758Z,25.72
2022-07-29T14:37:39.043Z,25.55
2022-07-29T14:40:08.147Z,25.31
2022-07-29T14:42:35.060Z,25.49
2022-07-29T14:45:02.091Z,25.68
2022-07-29T14:47:29.377Z,25.62
2022-07-29T14:49:56.203Z,25.89
2022-07-29T14:52:23.005Z,25.76
2022-07-29T14:54:50.508Z,25.70
2022-07-29T14:57:17.725Z,25.81
2022-07-29T14:59:44.840Z,25.81
2022-07-29T15:02:11.958Z,25.74
2022-07-29T15:04:40.402Z,25.73
2022-07-29T15:07:07.540Z,25.53
2022-07-29T15:09:40.161Z,25.58
2022-07-29T15:12:07.861Z,25.37
2022-07-29T15:14:35.062Z,25.36
2022-07-29T15:17:02.405Z,25.02
2022-07-29T15:19:31.603Z,25.13
2022-07-29T15:21:59.723Z,24.92
2022-07-29T15:24:27.036Z,25.13
2022-07-29T15:26:54.878Z,25.34
2022-07-29T15:29:22.453Z,25.57
2022-07-29T15:31:49.797Z,25.62
2022-07-29T15:34:16.745Z,25.10
2022-07-29T15:36:52.781Z,25.17
2022-07-29T15:39:21.364Z,24.90
2022-07-29T15:41:48.321Z,25.14
2022-07-29T15:44:15.065Z,25.21
2022-07-29T15:47:01.584Z,25.10
2022-07-29T15:49:47.915Z,25.26
2022-07-29T15:52:26.190Z,25.22
2022-07-29T15:54:54.360Z,25.25
2022-07-29T15:57:21.843Z,25.03
2022-07-29T15:59:48.725Z,24.85
2022-07-29T16:02:15.750Z,25.21
2022-07-29T16:04:42.903Z,25.07
2022-07-29T16:07:09.756Z,24.65
2022-07-29T16:09:36.628Z,24.77
2022-07-29T16:12:14.970Z,24.64
2022-07-29T16:14:43.442Z,24.46
2022-07-29T16:17:14.960Z,24.44
2022-07-29T16:19:42.835Z,24.43
2022-07-29T16:22:09.676Z,24.64
2022-07-29T16:24:37.403Z,24.60
2022-07-29T16:27:04.719Z,24.50
2022-07-29T16:29:31.560Z,24.49
2022-07-29T16:31:58.829Z,24.67
2022-07-29T16:34:25.700Z,24.27
2022-07-29T16:36:52.568Z,24.14
2022-07-29T16:39:19.623Z,24.10
2022-07-29T16:41:46.432Z,23.98
2022-07-29T16:44:13.332Z,24.12
2022-07-29T16:46:41.434Z,24.04
2022-07-29T16:49:08.392Z,23.83
2022-07-29T16:51:35.316Z,23.82
2022-07-29T16:54:02.709Z,23.70
2022-07-29T16:56:29.720Z,23.59
2022-07-29T16:58:57.944Z,23.68
2022-07-29T17:01:24.998Z,23.56
2022-07-29T17:04:07.113Z,23.59
2022-07-29T17:06:39.819Z,23.63
2022-07-29T17:09:07.416Z,23.46
2022-07-29T17:11:53.020Z,23.50
2022-07-29T17:14:24.177Z,23.42
2022-07-29T17:17:00.495Z,23.55
2022-07-29T17:19:28.579Z,23.45
2022-07-29T17:22:02.337Z,23.38
2022-07-29T17:24:34.332Z,23.17
2022-07-29T17:27:02.227Z,23.31
2022-07-29T17:29:29.115Z,23.12
2022-07-29T17:31:57.882Z,23.12
2022-07-29T17:34:24.736Z,23.19
2022-07-29T17:36:51.761Z,23.12
2022-07-29T17:39:18.892Z,23.07
2022-07-29T17:41:46.939Z,22.83
2022-07-29T17:44:13.783Z,22.76
2022-07-29T17:46:40.952Z,22.90
2022-07-29T17:49:07.886Z,22.69
2022-07-29T17:51:34.801Z,22.79
2022-07-29T17:54:01.991Z,22.72
2022-07-29T17:56:29.070Z,22.61
2022-07-29T17:58:56.328Z,22.49
2022-07-29T18:01:24.188Z,22.41
2022-07-29T18:03:51.140Z,22.26
2022-07-29T18:06:18.087Z,22.27
2022-07-29T18:08:47.646Z,22.38
2022-07-29T18:11:15.190Z,22.43
2022-07-29T18:13:43.164Z,22.39
2022-07-29T18:16:10.280Z,22.35
2022-07-29T18:18:37.321Z,22.14
2022-07-29T18:21:04.564Z,22.25
2022-07-29T18:23:32.074Z,22.24
2022-07-29T18:25:59.069Z,21.99
2022-07-29T18:28:25.848Z,21.82
2022-07-29T18:30:53.241Z,21.89
2022-07-29T18:33:22.149Z,21.67
2022-07-29T18:35:51.750Z,21.48
2022-07-29T18:38:19.325Z,21.58
2022-07-29T18:40:46.358Z,21.70
2022-07-29T18:43:13.848Z,21.54
2022-07-29T18:45:42.566Z,21.50
2022-07-29T18:48:12.821Z,21.50
2022-07-29T18:50:41.157Z,21.50
2022-07-29T18:53:08.560Z,21.41
2022-07-29T18:55:35.462Z,21.27
2022-07-29T18:58:02.275Z,21.12
2022-07-29T19:00:30.611Z,21.19
2022-07-29T19:02:57.587Z,21.18
2022-07-29T19:05:25.587Z,21.03
2022-07-29T19:07:54.874Z,20.92
2022-07-29T19:10:21.820Z,20.94
2022-07-29T19:12:48.864Z,20.88
2022-07-29T19:15:19.902Z,20.78
2022-07-29T19:17:48.057Z,20.79
2022-07-29T19:20:15.851Z,20.80
2022-07-29T19:22:42.859Z,20.73
2022-07-29T19:25:10.197Z,20.64
2022-07-29T19:27:37.494Z,20.56
2022-07-29T19:30:07.049Z,20.50
2022-07-29T19:32:34.017Z,20.37
2022-07-29T19:35:19.440Z,20.33
2022-07-29T19:37:46.522Z,20.21
2022-07-29T19:40:13.444Z,20.06
2022-07-29T19:42:40.266Z,20.08
2022-07-29T19:45:07.554Z,20.06
2022-07-29T19:47:34.453Z,19.88
2022-07-29T19:50:01.397Z,19.83
2022-07-29T19:52:28.851Z,19.73
2022-07-29T19:54:55.949Z,19.69
2022-07-29T19:57:22.759Z,19.61
2022-07-29T19:59:51.266Z,19.54
2022-07-29T20:02:18.487Z,19.52
2022-07-29T20:04:45.480Z,19.22
2022-07-29T20:07:13.651Z,19.42
2022-07-29T20:09:41.011Z,19.43
2022-07-29T20:12:08.884Z,19.39
2022-07-29T20:14:36.254Z,19.11
2022-07-29T20:17:03.425Z,19.31
2022-07-29T20:19:33.094Z,19.26
2022-07-29T20:22:01.704Z,19.23
2022-07-29T20:24:30.022Z,19.18
2022-07-29T20:26:57.863Z,19.15
2022-07-29T20:29:26.477Z,19.15
2022-07-29T20:31:56.709Z,19.08
2022-07-29T20:34:24.615Z,19.00
2022-07-29T20:36:52.630Z,19.01
2022-07-29T20:39:23.497Z,18.95
2022-07-29T20:41:51.405Z,18.93
2022-07-29T20:44:23.750Z,18.87
2022-07-29T20:46:51.275Z,18.75
2022-07-29T20:49:18.577Z,18.74
2022-07-29T20:51:46.757Z,18.68
2022-07-29T20:54:13.653Z,18.66
2022-07-29T20:56:42.062Z,18.57
2022-07-29T20:59:09.885Z,18.49
2022-07-29T21:01:37.151Z,18.47
2022-07-29T21:04:04.405Z,18.44
2022-07-29T21:06:31.795Z,18.43
2022-07-29T21:08:59.919Z,18.40
2022-07-29T21:11:44.542Z,18.30
2022-07-29T21:14:29.674Z,18.29
2022-07-29T21:16:57.472Z,18.27
2022-07-29T21:19:24.679Z,18.29
2022-07-29T21:21:51.495Z,18.21
2022-07-29T21:24:19.249Z,18.14
2022-07-29T21:26:54.476Z,18.11
2022-07-29T21:29:33.239Z,18.06
2022-07-29T21:32:00.345Z,18.04
2022-07-29T21:34:28.142Z,17.92
2022-07-29T21:36:55.079Z,17.90
2022-07-29T21:39:22.451Z,17.83
2022-07-29T21:41:49.525Z,17.79
2022-07-29T21:44:16.302Z,17.84
2022-07-29T21:46:43.396Z,17.86
2022-07-29T21:49:10.201Z,17.86
2022-07-29T21:51:37.033Z,17.79
2022-07-29T21:54:04.627Z,17.70
2022-07-29T21:56:31.688Z,17.67
2022-07-29T21:58:58.549Z,17.67
2022-07-29T22:01:25.775Z,17.69
2022-07-29T22:03:52.694Z,17.63
2022-07-29T22:06:19.769Z,17.64
2022-07-29T22:08:48.136Z,17.67
2022-07-29T22:11:14.999Z,17.64
2022-07-29T22:13:42.258Z,17.64
2022-07-29T22:16:10.362Z,17.60
2022-07-29T22:18:37.133Z,17.66
2022-07-29T22:21:04.258Z,17.51
2022-07-29T22:23:31.404Z,17.39
2022-07-29T22:25:58.243Z,17.32
2022-07-29T22:28:25.140Z,17.43
2022-07-29T22:30:52.213Z,17.47
2022-07-29T22:33:19.345Z,17.44
2022-07-29T22:35:48.334Z,17.40
2022-07-29T22:38:19.310Z,17.36
2022-07-29T22:40:48.770Z,17.32
2022-07-29T22:43:17.768Z,17.37
2022-07-29T22:45:44.745Z,17.27
2022-07-29T22:48:11.766Z,17.26
2022-07-29T22:50:39.300Z,17.30
2022-07-29T22:53:06.263Z,17.30
2022-07-29T22:55:33.327Z,17.29
2022-07-29T22:58:00.521Z,17.23
2022-07-29T23:00:27.336Z,17.20
2022-07-29T23:02:54.511Z,17.20
2022-07-29T23:05:21.510Z,17.13
2022-07-29T23:07:48.295Z,17.04
2022-07-29T23:10:15.163Z,16.93
2022-07-29T23:12:42.301Z,17.00
2022-07-29T23:15:09.212Z,16.94
2022-07-29T23:17:36.786Z,16.92
2022-07-29T23:20:08.094Z,16.91
2022-07-29T23:22:35.744Z,16.84
2022-07-29T23:25:02.878Z,16.71
2022-07-29T23:27:29.996Z,16.73
2022-07-29T23:29:56.836Z,16.69
2022-07-29T23:32:23.643Z,16.77
2022-07-29T23:34:50.712Z,16.64
2022-07-29T23:37:17.507Z,16.59
2022-07-29T23:39:44.250Z,16.60
2022-07-29T23:42:11.357Z,16.58
2022-07-29T23:44:38.331Z,16.56
2022-07-29T23:47:05.340Z,16.62
2022-07-29T23:49:32.401Z,16.58
2022-07-29T23:51:59.228Z,16.60
2022-07-29T23:54:26.199Z,16.55
2022-07-29T23:56:53.398Z,16.52
2022-07-29T23:59:20.191Z,16.57
